ストックホルム/アーランダ の空港の天気 - METARとTAF

ストックホルム・アーランダ空港 ( ESSA / ARN ) - スウェーデン ストックホルム
飛行場実況気象(Metar)
観測時間08/17 05:20 CEST (08/17 03:20 UTC)
風向・風速南 2m/s
視程5000m
天気現象散在した霧
なし
気温9℃
湿度100%
気圧1018hPa
METARESSA 170320Z 18003KT 5000 R01L/0400N R19R/0275N R01R/P1500N R19L/P1500N BCFG NSC 09/09 Q1018 TEMPO 2000 BCFG
過去の天気等 Google飛行場航空写真 Wunderground天気予報

過去48時間のMETAR

飛行場予報(TAF)
発表時間: 8/17 01:30 CEST (8/16 23:30 UTC)
予報対象時間: 17日2時 CEST ~ 18日2時 CEST
風向・風速南西 2m/s
視程8,000m
天気現象もや
なし
17日2時 CEST から 確率 40% で
視程500m
天気現象散在した霧
TAF ESSA 162330Z 1700/1724 22004KT 8000 BR NSC
PROB40 1700/1705 0500 BCFG